Time;durP1;ratioP1;P1;durP2;ratioP2;P2;SDS_P1;SDS_P2;PMS_P1;PMS_P2;Temp;Humidity;BMP_temperature;BMP_pressure;BME280_temperature;BME280_humidity;BME280_pressure;Samples;Min_cycle;Max_cycle;Signal;HPM_P1;HPM_P2
2021/12/23 00:00:09;;;;;;;57.47;24.63;;;-1.30;80.40;;;;;;5034580;28;20042;-65
2021/12/23 00:02:35;;;;;;;60.88;25.88;;;-1.30;80.40;;;;;;5035411;28;20037;-65
2021/12/23 00:05:00;;;;;;;56.63;24.63;;;-1.30;80.40;;;;;;5035957;28;20048;-65
2021/12/23 00:07:26;;;;;;;56.70;24.38;;;-1.30;80.40;;;;;;5026030;28;20053;-65
2021/12/23 00:10:04;;;;;;;55.25;23.45;;;-1.30;80.30;;;;;;5029204;28;20034;-66
2021/12/23 00:12:31;;;;;;;54.10;22.63;;;-1.30;80.30;;;;;;5030737;28;20041;-66
2021/12/23 00:14:56;;;;;;;55.33;22.30;;;-1.30;80.30;;;;;;5036470;28;20547;-66
2021/12/23 00:17:38;;;;;;;57.28;23.65;;;-1.20;80.30;;;;;;5034969;28;20041;-65
2021/12/23 00:25:14;;;;;;;53.20;20.83;;;-1.20;79.80;;;;;;5037808;28;20511;-65
2021/12/23 00:27:39;;;;;;;52.30;22.35;;;-1.30;79.70;;;;;;5035630;28;20069;-64
2021/12/23 00:30:06;;;;;;;49.70;21.85;;;-1.30;79.70;;;;;;5035208;28;20036;-64
2021/12/23 00:32:31;;;;;;;51.97;22.42;;;-1.40;79.70;;;;;;5036436;28;20155;-66
2021/12/23 00:34:57;;;;;;;54.70;22.65;;;-1.40;79.70;;;;;;5035322;28;20081;-65
2021/12/23 00:37:23;;;;;;;52.03;22.30;;;-1.40;79.80;;;;;;5035305;28;20510;-66
2021/12/23 00:39:48;;;;;;;49.80;21.50;;;-1.40;79.80;;;;;;5033209;28;20085;-66
2021/12/23 00:42:14;;;;;;;55.00;22.40;;;-1.40;79.80;;;;;;5034297;28;20148;-65
2021/12/23 00:44:45;;;;;;;53.10;22.42;;;-1.50;79.70;;;;;;5033741;28;20039;-65
2021/12/23 00:47:10;;;;;;;53.75;21.98;;;-1.50;79.70;;;;;;5026405;28;20036;-65
2021/12/23 00:49:36;;;;;;;50.60;21.80;;;-1.60;79.80;;;;;;5036685;28;20041;-65
2021/12/23 00:52:03;;;;;;;53.67;22.75;;;-1.60;79.90;;;;;;5024674;28;22030;-65
2021/12/23 00:54:29;;;;;;;54.20;22.23;;;-1.60;80.20;;;;;;5023418;28;20033;-65
2021/12/23 00:56:55;;;;;;;54.60;23.25;;;-1.60;80.40;;;;;;5032627;28;20607;-65
2021/12/23 00:59:20;;;;;;;50.95;22.20;;;-1.60;80.50;;;;;;5026728;28;20576;-65
2021/12/23 01:01:47;;;;;;;58.67;23.58;;;-1.70;80.60;;;;;;5035139;28;20590;-65
2021/12/23 01:04:13;;;;;;;58.00;23.35;;;-1.60;80.60;;;;;;5031732;28;20037;-65
2021/12/23 01:06:39;;;;;;;56.00;22.83;;;-1.60;81.40;;;;;;5035181;28;20055;-66
2021/12/23 01:09:04;;;;;;;55.67;22.80;;;-1.60;80.60;;;;;;5035029;28;20037;-65
2021/12/23 01:11:30;;;;;;;51.30;21.95;;;-1.60;80.70;;;;;;5030551;28;20057;-66
2021/12/23 01:14:02;;;;;;;55.00;22.73;;;-1.60;80.60;;;;;;5036093;28;20032;-65
2021/12/23 01:16:49;;;;;;;56.05;23.58;;;-1.60;80.60;;;;;;5034701;28;20025;-66
2021/12/23 01:19:17;;;;;;;53.05;22.90;;;-1.60;80.60;;;;;;5032854;28;20045;-65
2021/12/23 01:21:43;;;;;;;59.53;24.80;;;-1.60;80.60;;;;;;5034304;28;20036;-66
2021/12/23 01:24:10;;;;;;;57.08;22.50;;;-1.50;80.70;;;;;;5035277;28;20025;-64
2021/12/23 01:26:37;;;;;;;58.25;22.85;;;-1.60;80.40;;;;;;5034314;28;20036;-65
2021/12/23 01:29:03;;;;;;;61.05;24.50;;;-1.50;80.40;;;;;;5036685;28;20025;-65
2021/12/23 01:31:30;;;;;;;54.75;22.05;;;-1.60;80.40;;;;;;5032207;28;20033;-65
2021/12/23 01:33:57;;;;;;;54.03;22.52;;;-1.50;80.50;;;;;;5035001;28;20037;-65
2021/12/23 01:36:24;;;;;;;52.40;21.48;;;-1.60;80.50;;;;;;5031797;28;20030;-64
2021/12/23 01:38:50;;;;;;;55.17;22.73;;;-1.60;80.60;;;;;;5033995;28;20386;-65
2021/12/23 01:41:16;;;;;;;57.58;22.55;;;-1.60;80.60;;;;;;5035318;28;20037;-65
2021/12/23 01:43:42;;;;;;;54.97;21.85;;;-1.60;80.60;;;;;;5035771;28;20036;-65
2021/12/23 01:46:08;;;;;;;48.80;20.48;;;-1.60;80.60;;;;;;5034969;28;20037;-65
2021/12/23 01:48:34;;;;;;;49.20;21.60;;;-1.60;80.60;;;;;;5033074;28;20108;-66
2021/12/23 01:51:00;;;;;;;48.42;21.33;;;-1.60;80.70;;;;;;5033135;28;20492;-65
2021/12/23 01:53:26;;;;;;;48.97;21.38;;;-1.60;80.70;;;;;;5033453;28;20032;-65
2021/12/23 01:55:52;;;;;;;47.67;20.77;;;-1.60;81.00;;;;;;5033004;28;20037;-65
2021/12/23 01:58:18;;;;;;;52.50;21.23;;;-1.60;80.90;;;;;;5035090;28;20618;-65
2021/12/23 02:00:47;;;;;;;46.67;20.10;;;-1.60;81.00;;;;;;5030172;28;20029;-65
2021/12/23 02:03:13;;;;;;;52.17;21.70;;;-1.50;81.10;;;;;;5030936;28;20042;-65
2021/12/23 02:05:39;;;;;;;48.53;20.63;;;-1.50;81.10;;;;;;5023422;28;20040;-65
2021/12/23 02:08:06;;;;;;;53.78;22.63;;;-1.50;81.10;;;;;;5029821;28;20052;-66
2021/12/23 02:10:32;;;;;;;52.58;22.70;;;-1.50;81.10;;;;;;5023138;28;20704;-65
2021/12/23 02:12:58;;;;;;;56.05;22.85;;;-1.40;81.00;;;;;;5022601;28;20124;-65
2021/12/23 02:15:24;;;;;;;53.47;22.35;;;-1.40;81.00;;;;;;5027036;28;20415;-65
2021/12/23 02:17:50;;;;;;;50.65;20.95;;;-1.40;81.00;;;;;;5029408;28;20040;-65
2021/12/23 02:20:22;;;;;;;53.10;22.23;;;-1.40;81.00;;;;;;5025475;28;20037;-65
2021/12/23 02:22:48;;;;;;;56.53;23.77;;;-1.40;81.10;;;;;;5027981;28;20037;-65
2021/12/23 02:25:16;;;;;;;54.85;23.52;;;-1.40;81.10;;;;;;5031127;28;20036;-65
2021/12/23 02:27:42;;;;;;;55.42;23.17;;;-1.30;81.10;;;;;;5025889;28;20041;-65
2021/12/23 02:30:17;;;;;;;57.35;23.80;;;-1.30;81.20;;;;;;5031049;28;20065;-65
2021/12/23 02:32:44;;;;;;;54.58;23.35;;;-1.30;81.30;;;;;;5028134;28;20049;-64
2021/12/23 02:35:13;;;;;;;55.78;23.45;;;-1.30;81.30;;;;;;5025602;28;20108;-65
2021/12/23 02:37:40;;;;;;;59.53;24.42;;;-1.20;81.40;;;;;;5022713;28;20045;-65
2021/12/23 02:40:07;;;;;;;56.20;23.48;;;-1.20;81.30;;;;;;5029089;28;20036;-65
2021/12/23 02:42:33;;;;;;;57.35;24.50;;;-1.20;81.30;;;;;;5025569;28;20036;-66
2021/12/23 02:44:58;;;;;;;58.05;23.75;;;-1.10;81.30;;;;;;5026389;28;20029;-64
2021/12/23 02:47:24;;;;;;;58.50;24.42;;;-1.10;81.20;;;;;;5026213;28;20044;-65
2021/12/23 02:49:50;;;;;;;58.75;23.95;;;-1.10;81.20;;;;;;5027232;28;20455;-65
2021/12/23 02:52:16;;;;;;;60.28;24.35;;;-1.00;81.20;;;;;;5029532;28;20072;-65
2021/12/23 02:54:42;;;;;;;58.40;23.73;;;-1.00;81.20;;;;;;5025783;28;20037;-65
2021/12/23 02:57:07;;;;;;;57.58;23.98;;;-1.00;81.10;;;;;;5025693;28;20528;-65
2021/12/23 02:59:33;;;;;;;62.28;25.48;;;-1.00;81.00;;;;;;5028655;28;20408;-65
2021/12/23 03:02:00;;;;;;;61.92;25.42;;;-1.00;81.00;;;;;;5024601;28;20025;-65
2021/12/23 03:04:26;;;;;;;63.22;25.13;;;-0.90;81.20;;;;;;5026457;28;20068;-66
2021/12/23 03:06:56;;;;;;;60.00;25.35;;;-0.90;81.30;;;;;;5031224;28;20120;-65
2021/12/23 03:09:21;;;;;;;59.58;24.40;;;-0.90;81.30;;;;;;5033726;28;20111;-65
2021/12/23 03:11:47;;;;;;;61.45;25.10;;;-0.90;81.10;;;;;;5025748;28;20037;-65
2021/12/23 03:14:14;;;;;;;61.88;25.73;;;-0.80;81.10;;;;;;5025549;28;20192;-66
2021/12/23 03:16:39;;;;;;;58.83;24.35;;;-0.80;81.30;;;;;;5026460;28;20045;-65
2021/12/23 03:19:06;;;;;;;55.85;24.50;;;-0.80;81.30;;;;;;5032269;28;20033;-65
2021/12/23 03:21:34;;;;;;;60.95;24.85;;;-0.80;81.30;;;;;;5031619;28;20041;-65
2021/12/23 03:23:59;;;;;;;62.15;25.58;;;-0.80;81.20;;;;;;5028406;28;20033;-65
2021/12/23 03:26:26;;;;;;;63.38;25.52;;;-0.70;81.10;;;;;;5034988;28;20037;-65
2021/12/23 03:28:51;;;;;;;60.03;25.13;;;-0.70;81.10;;;;;;5030458;28;20587;-65
2021/12/23 03:31:17;;;;;;;61.85;24.90;;;-0.70;81.00;;;;;;5031633;28;20038;-65
2021/12/23 03:33:43;;;;;;;64.80;25.95;;;-0.70;80.90;;;;;;5028170;28;20045;-65
2021/12/23 03:36:08;;;;;;;60.03;24.50;;;-0.70;80.90;;;;;;5031271;28;20489;-65
2021/12/23 03:38:34;;;;;;;58.45;23.75;;;-0.70;80.90;;;;;;5029738;28;20067;-65
2021/12/23 03:41:00;;;;;;;67.82;27.65;;;-0.80;80.80;;;;;;5033884;28;20030;-65
2021/12/23 03:43:29;;;;;;;57.58;25.30;;;-0.80;80.90;;;;;;5032881;28;20053;-67
2021/12/23 03:45:54;;;;;;;59.42;25.15;;;-0.80;80.90;;;;;;5029923;28;20124;-65
2021/12/23 03:48:20;;;;;;;65.10;26.92;;;-0.80;80.90;;;;;;5032840;28;20593;-66
2021/12/23 03:50:47;;;;;;;56.35;24.85;;;-0.80;80.90;;;;;;5030475;28;20064;-65
2021/12/23 03:53:13;;;;;;;58.70;24.35;;;-0.80;81.00;;;;;;5024756;28;20733;-65
2021/12/23 03:55:39;;;;;;;55.97;24.00;;;-0.80;80.90;;;;;;5029481;28;20572;-65
2021/12/23 03:58:05;;;;;;;56.90;25.17;;;-0.80;80.90;;;;;;5031611;28;20064;-65
2021/12/23 04:00:31;;;;;;;59.80;24.20;;;-0.80;81.00;;;;;;5030698;28;20497;-65
2021/12/23 04:02:57;;;;;;;58.63;24.88;;;-0.80;80.90;;;;;;5027779;28;20116;-65
2021/12/23 04:05:23;;;;;;;59.90;25.48;;;-0.70;81.00;;;;;;5025475;28;20572;-65
2021/12/23 04:07:49;;;;;;;63.85;26.25;;;-0.70;81.10;;;;;;5025961;28;20087;-65
2021/12/23 04:10:18;;;;;;;61.53;25.88;;;-0.70;81.00;;;;;;5024646;28;20045;-65
2021/12/23 04:12:45;;;;;;;61.90;25.15;;;-0.70;81.00;;;;;;5026237;28;20573;-65
2021/12/23 04:15:11;;;;;;;59.42;25.17;;;-0.70;80.90;;;;;;5025089;28;20508;-65
2021/12/23 04:17:37;;;;;;;60.20;25.17;;;-0.70;81.10;;;;;;5025144;28;20041;-64
2021/12/23 04:20:31;;;;;;;59.63;24.83;;;-0.70;81.00;;;;;;5022604;28;20043;-65
2021/12/23 04:22:57;;;;;;;63.22;25.48;;;-0.70;81.00;;;;;;5024443;28;20033;-65
2021/12/23 04:25:25;;;;;;;66.50;26.95;;;-0.70;80.90;;;;;;5023892;28;20057;-65
2021/12/23 04:27:54;;;;;;;62.70;25.85;;;-0.70;80.90;;;;;;5031084;28;20040;-65
2021/12/23 04:30:21;;;;;;;67.80;27.10;;;-0.70;80.90;;;;;;5035333;28;20041;-65
2021/12/23 04:32:47;;;;;;;65.05;25.88;;;-0.70;80.90;;;;;;5027538;28;20041;-65
2021/12/23 04:35:13;;;;;;;59.35;25.25;;;-0.70;80.90;;;;;;5033459;28;20033;-65
2021/12/23 04:37:39;;;;;;;64.50;26.02;;;-0.70;81.00;;;;;;5031588;28;20045;-65
2021/12/23 04:40:08;;;;;;;63.97;26.10;;;-0.70;80.80;;;;;;5025931;28;20032;-66
2021/12/23 04:42:34;;;;;;;59.80;25.27;;;-0.70;80.80;;;;;;5029432;28;20032;-65
2021/12/23 04:45:00;;;;;;;64.80;26.10;;;-0.70;80.80;;;;;;5032317;28;20030;-65
2021/12/23 04:47:25;;;;;;;60.35;25.85;;;-0.70;80.70;;;;;;5026184;28;20029;-69
2021/12/23 04:49:51;;;;;;;63.15;25.10;;;-0.70;80.70;;;;;;5028314;28;20037;-65
2021/12/23 04:52:17;;;;;;;59.67;25.73;;;-0.70;80.70;;;;;;5026229;28;20980;-65
2021/12/23 04:54:42;;;;;;;61.38;26.75;;;-0.70;80.70;;;;;;5025320;28;20738;-64
2021/12/23 04:57:08;;;;;;;57.22;25.27;;;-0.70;81.50;;;;;;5032239;28;20087;-65
2021/12/23 04:59:34;;;;;;;66.35;26.33;;;-0.60;80.60;;;;;;5033510;28;20037;-65
2021/12/23 05:02:00;;;;;;;61.83;24.83;;;-0.70;80.50;;;;;;5025664;28;20033;-65
2021/12/23 05:04:25;;;;;;;63.58;27.13;;;-0.70;80.40;;;;;;5023667;28;20139;-64
2021/12/23 05:06:51;;;;;;;63.88;26.65;;;-0.70;80.40;;;;;;5027726;28;20044;-65
2021/12/23 05:09:16;;;;;;;65.82;27.27;;;-0.70;80.40;;;;;;5034587;28;20108;-66
2021/12/23 05:11:44;;;;;;;62.50;26.73;;;-0.70;80.30;;;;;;5019144;28;20033;-65
2021/12/23 05:14:10;;;;;;;63.67;26.13;;;-0.70;80.30;;;;;;5033188;28;20746;-65
2021/12/23 05:16:35;;;;;;;62.05;26.83;;;-0.70;80.30;;;;;;5028185;28;20033;-66
2021/12/23 05:19:01;;;;;;;61.75;26.95;;;-0.70;80.30;;;;;;5022453;28;20571;-66
2021/12/23 05:21:27;;;;;;;61.47;26.10;;;-0.70;80.20;;;;;;5026850;28;20040;-65
2021/12/23 05:23:52;;;;;;;64.63;26.52;;;-0.70;80.30;;;;;;5030902;28;20079;-65
2021/12/23 05:26:18;;;;;;;65.20;26.52;;;-0.70;80.20;;;;;;5029814;28;20026;-64
2021/12/23 05:28:44;;;;;;;63.53;26.98;;;-0.70;81.00;;;;;;5032514;28;20129;-66
2021/12/23 05:31:09;;;;;;;64.25;27.48;;;-0.70;81.00;;;;;;5027555;28;20037;-66
2021/12/23 05:33:35;;;;;;;62.53;26.02;;;-0.70;80.20;;;;;;5023626;28;20468;-65
2021/12/23 05:36:01;;;;;;;64.90;26.88;;;-0.70;80.20;;;;;;5032266;28;20408;-65
2021/12/23 05:38:27;;;;;;;63.50;27.80;;;-0.80;80.00;;;;;;5032814;28;20036;-65
2021/12/23 05:40:53;;;;;;;70.75;31.00;;;-0.80;80.90;;;;;;5028324;28;20029;-66
2021/12/23 05:43:19;;;;;;;66.60;28.13;;;-0.80;80.00;;;;;;5026909;28;20107;-66
2021/12/23 05:45:44;;;;;;;66.45;26.98;;;-0.80;80.10;;;;;;5025963;28;20037;-65
2021/12/23 05:48:10;;;;;;;62.38;26.23;;;-0.80;80.20;;;;;;5029461;28;20061;-66
2021/12/23 05:50:35;;;;;;;59.42;25.63;;;-0.90;80.20;;;;;;5029436;28;20613;-66
2021/12/23 05:53:01;;;;;;;63.95;26.73;;;-0.90;80.10;;;;;;5029784;28;20041;-66
2021/12/23 05:55:27;;;;;;;66.60;27.77;;;-0.90;80.20;;;;;;5028033;28;20037;-65
2021/12/23 05:57:52;;;;;;;67.85;29.02;;;-0.90;80.20;;;;;;5028522;28;20056;-65
2021/12/23 06:00:25;;;;;;;67.80;27.73;;;-0.90;80.20;;;;;;5027903;28;20041;-66
2021/12/23 06:02:52;;;;;;;68.38;30.10;;;-0.90;80.10;;;;;;5026072;28;20075;-64
2021/12/23 06:05:18;;;;;;;62.60;27.85;;;-0.90;80.10;;;;;;5027638;28;20091;-66
2021/12/23 06:07:44;;;;;;;65.65;28.65;;;-0.90;80.20;;;;;;5032608;28;20072;-66
2021/12/23 06:10:12;;;;;;;64.38;28.10;;;-0.90;80.20;;;;;;5028742;28;20068;-65
2021/12/23 06:12:38;;;;;;;65.80;28.52;;;-0.90;80.30;;;;;;5019784;28;20412;-66
2021/12/23 06:15:04;;;;;;;63.85;27.42;;;-1.00;80.20;;;;;;5028329;28;20103;-65
2021/12/23 06:17:30;;;;;;;62.10;27.33;;;-1.00;80.20;;;;;;5032301;28;20042;-65
2021/12/23 06:19:55;;;;;;;62.17;26.63;;;-1.00;80.20;;;;;;5030169;28;20044;-65
2021/12/23 06:22:21;;;;;;;67.28;28.08;;;-1.00;80.20;;;;;;5028798;28;20045;-65
2021/12/23 06:24:48;;;;;;;61.85;26.85;;;-1.00;80.20;;;;;;5030795;28;20029;-65
2021/12/23 06:27:15;;;;;;;59.60;26.33;;;-1.00;80.30;;;;;;5030210;28;20040;-65
2021/12/23 06:29:41;;;;;;;62.55;26.63;;;-1.00;80.20;;;;;;5032138;28;20044;-65
2021/12/23 06:32:07;;;;;;;58.05;25.77;;;-1.10;80.20;;;;;;5022171;28;20025;-64
2021/12/23 06:34:33;;;;;;;63.30;25.60;;;-1.10;80.20;;;;;;5022539;28;20079;-66
2021/12/23 06:36:59;;;;;;;63.55;26.45;;;-1.10;80.20;;;;;;5021842;28;20153;-65
2021/12/23 06:39:24;;;;;;;59.88;25.63;;;-1.10;80.20;;;;;;5023413;28;20037;-65
2021/12/23 06:41:50;;;;;;;61.00;25.25;;;-1.10;80.20;;;;;;5027418;28;20033;-65
2021/12/23 06:44:15;;;;;;;59.25;25.95;;;-1.10;80.40;;;;;;5024744;28;20114;-65
2021/12/23 06:46:41;;;;;;;56.78;24.38;;;-1.20;80.20;;;;;;5032564;28;20057;-65
2021/12/23 06:49:07;;;;;;;63.42;25.80;;;-1.20;81.10;;;;;;5032207;28;20697;-65
2021/12/23 06:51:33;;;;;;;62.92;25.92;;;-1.20;80.30;;;;;;5032457;28;20033;-66
2021/12/23 06:54:01;;;;;;;60.47;26.85;;;-1.20;80.40;;;;;;5026968;28;20080;-65
2021/12/23 06:56:26;;;;;;;68.25;26.10;;;-1.20;80.40;;;;;;5030412;28;20029;-64
2021/12/23 06:58:52;;;;;;;61.47;25.95;;;-1.20;80.40;;;;;;5031176;28;20574;-65
2021/12/23 07:01:20;;;;;;;63.78;27.80;;;-1.30;80.40;;;;;;5031418;28;20041;-65
2021/12/23 07:06:20;;;;;;;65.18;26.88;;;-1.30;80.60;;;;;;5036362;28;20390;-65
2021/12/23 07:08:45;;;;;;;63.60;27.20;;;-1.30;80.70;;;;;;5025237;28;20120;-62
2021/12/23 07:11:11;;;;;;;64.78;27.10;;;-1.30;80.80;;;;;;5017807;28;20473;-64
2021/12/23 07:13:36;;;;;;;62.28;26.95;;;-1.30;80.90;;;;;;5016285;28;20049;-66
2021/12/23 07:16:02;;;;;;;62.15;27.05;;;-1.30;80.90;;;;;;5026989;28;20546;-67
2021/12/23 07:18:28;;;;;;;66.97;29.33;;;-1.30;80.90;;;;;;5027759;28;20030;-64
2021/12/23 07:20:54;;;;;;;67.35;29.77;;;-1.20;80.90;;;;;;5030157;28;20041;-65
2021/12/23 07:23:20;;;;;;;65.65;27.67;;;-1.20;80.90;;;;;;5028515;28;20025;-64
2021/12/23 07:25:45;;;;;;;64.38;27.50;;;-1.20;80.80;;;;;;5026590;28;20378;-65
2021/12/23 07:28:11;;;;;;;65.43;27.23;;;-1.20;80.70;;;;;;5030196;28;20029;-66
2021/12/23 07:30:37;;;;;;;63.83;28.75;;;-1.10;80.70;;;;;;5025190;28;20053;-66
2021/12/23 07:33:02;;;;;;;67.22;29.30;;;-1.10;80.70;;;;;;5026508;28;20033;-65
2021/12/23 07:35:28;;;;;;;66.07;28.27;;;-1.10;80.70;;;;;;5030884;28;20842;-66
2021/12/23 07:37:54;;;;;;;62.25;27.20;;;-1.10;80.70;;;;;;5032580;28;20029;-66
2021/12/23 07:40:20;;;;;;;66.10;27.35;;;-1.10;80.70;;;;;;5032186;28;20033;-66
2021/12/23 07:43:09;;;;;;;61.00;26.73;;;-1.00;80.70;;;;;;5024415;28;20025;-65
2021/12/23 07:45:36;;;;;;;66.25;26.75;;;-1.00;80.70;;;;;;5027507;28;20029;-66
2021/12/23 07:48:02;;;;;;;63.08;26.08;;;-1.00;80.60;;;;;;5031168;28;20037;-66
2021/12/23 07:50:28;;;;;;;62.17;26.60;;;-1.00;80.60;;;;;;5022455;28;20393;-65
2021/12/23 07:52:54;;;;;;;63.10;25.65;;;-1.00;80.60;;;;;;5030361;28;20344;-65
2021/12/23 07:55:21;;;;;;;56.83;25.45;;;-1.00;81.40;;;;;;5029736;28;20029;-66
2021/12/23 07:57:47;;;;;;;61.13;24.90;;;-0.90;80.60;;;;;;5030097;28;20037;-66
2021/12/23 08:00:14;;;;;;;65.05;26.67;;;-0.90;80.50;;;;;;5029014;28;20033;-65
2021/12/23 08:02:40;;;;;;;60.63;25.52;;;-0.90;80.60;;;;;;5027854;28;20041;-65
2021/12/23 08:05:06;;;;;;;62.10;26.63;;;-0.90;80.60;;;;;;5030233;28;20045;-66
2021/12/23 08:07:32;;;;;;;59.22;26.55;;;-0.90;80.70;;;;;;5028401;28;20034;-64
2021/12/23 08:09:57;;;;;;;68.03;27.92;;;-0.90;80.80;;;;;;5027248;28;20440;-65
2021/12/23 08:12:23;;;;;;;64.25;27.52;;;-0.90;80.80;;;;;;5022422;28;20125;-65
2021/12/23 08:14:49;;;;;;;60.05;26.33;;;-0.80;80.90;;;;;;5027300;28;20064;-65
2021/12/23 08:17:14;;;;;;;61.10;25.85;;;-0.80;80.90;;;;;;5027537;28;20424;-66
2021/12/23 08:19:40;;;;;;;70.22;27.75;;;-0.80;80.90;;;;;;5019293;28;20030;-65
2021/12/23 08:22:06;;;;;;;67.07;28.52;;;-0.70;81.00;;;;;;5025056;28;20032;-65
2021/12/23 08:24:32;;;;;;;58.28;26.30;;;-0.70;81.00;;;;;;5031538;28;20059;-64
2021/12/23 08:26:57;;;;;;;69.38;29.90;;;-0.70;81.80;;;;;;5031817;28;20033;-65
2021/12/23 08:29:24;;;;;;;73.50;30.13;;;-0.60;81.00;;;;;;5029888;28;20133;-65
2021/12/23 08:31:53;;;;;;;68.45;28.33;;;-0.60;80.90;;;;;;5029636;28;20111;-65
2021/12/23 08:34:26;;;;;;;73.38;30.85;;;-0.50;81.00;;;;;;5030713;28;20046;-65
2021/12/23 08:36:52;;;;;;;79.32;34.40;;;-0.50;81.00;;;;;;5009273;28;20037;-65
2021/12/23 08:39:19;;;;;;;68.22;29.90;;;-0.40;81.10;;;;;;5009287;28;20057;-65
2021/12/23 08:41:45;;;;;;;59.13;26.50;;;-0.40;81.10;;;;;;5011702;28;20132;-65
2021/12/23 08:44:11;;;;;;;54.97;25.58;;;-0.40;81.00;;;;;;5008569;28;20056;-65
2021/12/23 08:46:37;;;;;;;56.83;25.10;;;-0.30;81.10;;;;;;5021205;28;20037;-65
2021/12/23 08:49:05;;;;;;;66.20;28.02;;;-0.30;81.00;;;;;;5027693;28;20038;-65
2021/12/23 08:51:32;;;;;;;64.97;27.45;;;-0.30;81.10;;;;;;5037519;28;20037;-66
2021/12/23 08:53:58;;;;;;;64.32;29.55;;;-0.20;81.10;;;;;;5031394;28;20064;-66
2021/12/23 08:56:23;;;;;;;63.63;26.60;;;-0.20;81.20;;;;;;5028912;28;20045;-64
2021/12/23 08:58:49;;;;;;;59.83;26.17;;;-0.20;81.20;;;;;;5030663;28;20056;-65
2021/12/23 09:01:15;;;;;;;63.92;27.48;;;-0.10;81.30;;;;;;5027387;28;21047;-63
2021/12/23 09:03:41;;;;;;;59.38;26.00;;;-0.10;81.30;;;;;;5022387;28;20635;-65
2021/12/23 09:06:07;;;;;;;62.15;27.02;;;-0.10;81.30;;;;;;5028087;28;20065;-64
2021/12/23 09:08:33;;;;;;;61.95;28.20;;;0.00;81.40;;;;;;5031387;28;20041;-65
2021/12/23 09:11:00;;;;;;;59.42;26.83;;;0.00;81.40;;;;;;5030074;28;20153;-66
2021/12/23 09:13:26;;;;;;;64.72;28.45;;;0.00;81.40;;;;;;5035083;28;20038;-65
2021/12/23 09:15:52;;;;;;;62.35;26.60;;;0.10;81.40;;;;;;5033998;28;20121;-66
2021/12/23 09:18:22;;;;;;;60.17;25.80;;;0.10;81.60;;;;;;5034418;28;20148;-66
2021/12/23 09:20:49;;;;;;;57.67;24.70;;;0.20;81.80;;;;;;5033695;28;20160;-66
2021/12/23 09:23:16;;;;;;;56.90;24.85;;;0.20;81.70;;;;;;5037467;28;20034;-66
2021/12/23 09:25:41;;;;;;;57.40;23.42;;;0.20;81.70;;;;;;5034724;28;20084;-66
2021/12/23 09:33:29;;;;;;;53.05;23.58;;;0.40;81.80;;;;;;5035380;28;20527;-65
2021/12/23 09:35:55;;;;;;;54.70;24.60;;;0.50;81.80;;;;;;5034968;28;20484;-65
2021/12/23 09:38:27;;;;;;;56.08;23.42;;;0.50;81.80;;;;;;5036809;28;20060;-65
2021/12/23 09:40:59;;;;;;;59.15;25.58;;;0.60;81.80;;;;;;5036108;28;20036;-65
2021/12/23 09:43:28;;;;;;;53.55;23.58;;;0.60;81.80;;;;;;5036739;28;20056;-66
2021/12/23 09:45:54;;;;;;;55.38;24.45;;;0.70;81.80;;;;;;5034537;28;20700;-65
2021/12/23 09:48:21;;;;;;;51.88;23.92;;;0.70;81.70;;;;;;5033684;28;20492;-66
2021/12/23 09:50:49;;;;;;;55.45;23.80;;;0.80;81.60;;;;;;5028452;28;20044;-64
2021/12/23 09:53:18;;;;;;;57.95;24.67;;;0.80;81.60;;;;;;5033951;28;20072;-65
2021/12/23 09:55:44;;;;;;;58.13;26.80;;;0.90;81.70;;;;;;5034698;28;20033;-65
2021/12/23 09:58:10;;;;;;;57.15;25.05;;;0.90;81.80;;;;;;5035507;28;20033;-66
2021/12/23 10:00:39;;;;;;;50.08;22.58;;;1.00;81.80;;;;;;5032598;28;20045;-65
2021/12/23 10:03:06;;;;;;;50.75;23.40;;;1.00;81.80;;;;;;5035199;28;20520;-65
2021/12/23 10:05:34;;;;;;;51.35;24.05;;;1.10;81.70;;;;;;5034820;28;20087;-65
2021/12/23 10:08:01;;;;;;;52.97;22.63;;;1.10;81.60;;;;;;5033088;28;20474;-65
2021/12/23 10:11:16;;;;;;;53.08;23.00;;;1.20;81.60;;;;;;5021459;28;20416;-65
2021/12/23 10:30:20;;;;;;;51.05;23.95;;;1.60;81.40;;;;;;5030067;28;20041;-65
2021/12/23 10:38:21;;;;;;;51.03;21.58;;;1.70;81.30;;;;;;5022911;28;20153;-65
2021/12/23 10:40:50;;;;;;;46.33;22.13;;;1.80;81.30;;;;;;5024571;28;20033;-65
2021/12/23 10:43:38;;;;;;;49.30;21.88;;;1.80;81.30;;;;;;5031297;28;20045;-65
2021/12/23 10:46:13;;;;;;;54.28;24.15;;;1.90;81.20;;;;;;5037877;28;20047;-65
2021/12/23 10:49:31;;;;;;;55.00;24.67;;;1.90;81.10;;;;;;5032988;28;20038;-65
2021/12/23 10:52:06;;;;;;;50.47;21.83;;;1.90;81.10;;;;;;5034011;28;20029;-64
2021/12/23 11:00:31;;;;;;;46.92;21.90;;;2.10;81.00;;;;;;5037898;28;20044;-65
2021/12/23 11:03:09;;;;;;;44.70;21.10;;;2.10;80.90;;;;;;5030725;28;20112;-66
2021/12/23 11:05:41;;;;;;;43.05;20.65;;;2.20;81.00;;;;;;5029199;28;20022;-64
2021/12/23 11:43:51;;;;;;;41.78;19.73;;;3.00;80.60;;;;;;5032072;28;20029;-65
2021/12/23 11:46:25;;;;;;;42.42;20.90;;;3.00;80.50;;;;;;5033173;28;20100;-67
2021/12/23 11:48:55;;;;;;;46.42;21.23;;;3.10;80.50;;;;;;5033625;28;20037;-65
2021/12/23 11:51:35;;;;;;;42.90;20.95;;;3.10;80.40;;;;;;5032017;28;20049;-65
2021/12/23 11:54:03;;;;;;;46.70;21.33;;;3.20;80.30;;;;;;5033634;28;20033;-68
2021/12/23 11:56:31;;;;;;;49.25;22.35;;;3.20;80.20;;;;;;5032899;28;20119;-66
2021/12/23 11:59:00;;;;;;;46.45;22.30;;;3.20;80.10;;;;;;5037404;28;20401;-65
2021/12/23 12:01:31;;;;;;;41.88;19.85;;;3.20;80.00;;;;;;5027964;28;20412;-66
2021/12/23 12:04:04;;;;;;;43.20;21.10;;;3.30;80.10;;;;;;5029039;28;20037;-66
2021/12/23 12:06:35;;;;;;;41.30;19.73;;;3.30;79.90;;;;;;5030194;28;20041;-66
2021/12/23 12:09:13;;;;;;;39.67;19.73;;;3.30;79.70;;;;;;5037414;28;20029;-65
2021/12/23 12:11:39;;;;;;;42.47;20.52;;;3.40;79.70;;;;;;5029235;28;20497;-65
2021/12/23 12:14:25;;;;;;;41.65;19.98;;;3.40;79.70;;;;;;5036229;28;20029;-66
2021/12/23 12:16:51;;;;;;;40.15;19.90;;;3.50;79.70;;;;;;5037630;28;20091;-66
2021/12/23 12:19:36;;;;;;;45.42;20.73;;;3.50;79.50;;;;;;5035440;28;20060;-66
2021/12/23 12:22:02;;;;;;;43.58;20.70;;;3.50;79.40;;;;;;5036425;28;20476;-66
2021/12/23 12:24:44;;;;;;;40.50;19.10;;;3.60;79.40;;;;;;5020109;28;20116;-66
2021/12/23 12:27:10;;;;;;;47.13;21.27;;;3.60;79.20;;;;;;5036150;28;20079;-66
2021/12/23 12:29:38;;;;;;;41.45;20.48;;;3.60;79.20;;;;;;5037355;28;20026;-66
2021/12/23 12:32:05;;;;;;;44.35;19.83;;;3.70;79.20;;;;;;5035478;28;20037;-66
2021/12/23 12:34:36;;;;;;;47.25;22.10;;;3.70;79.20;;;;;;5023164;28;20057;-68
2021/12/23 12:37:04;;;;;;;48.40;23.23;;;3.70;78.90;;;;;;5030325;28;20508;-66
2021/12/23 12:39:40;;;;;;;43.25;21.55;;;3.70;78.90;;;;;;5031945;28;20135;-66
2021/12/23 12:42:11;;;;;;;46.13;21.45;;;3.70;78.80;;;;;;5031598;28;20041;-66
2021/12/23 12:44:48;;;;;;;46.72;22.45;;;3.70;78.90;;;;;;5029614;28;20033;-66
2021/12/23 12:47:24;;;;;;;50.55;22.60;;;3.70;78.80;;;;;;5024072;28;20403;-64
2021/12/23 12:50:05;;;;;;;46.13;21.70;;;3.70;78.70;;;;;;5023170;28;20108;-66
2021/12/23 12:52:41;;;;;;;44.92;22.08;;;3.70;78.80;;;;;;5030139;28;20033;-67
2021/12/23 12:55:06;;;;;;;42.15;20.83;;;3.70;78.80;;;;;;5035067;28;20029;-66
2021/12/23 12:57:45;;;;;;;44.00;20.38;;;3.70;78.90;;;;;;5029631;28;20087;-65
2021/12/23 13:00:39;;;;;;;38.38;19.25;;;3.70;78.90;;;;;;5031983;28;20041;-66
2021/12/23 13:03:08;;;;;;;40.97;19.30;;;3.70;78.70;;;;;;5005591;28;20090;-66
2021/12/23 13:05:45;;;;;;;58.35;26.88;;;3.80;79.10;;;;;;5005158;28;20511;-65
2021/12/23 13:08:39;;;;;;;42.50;21.30;;;3.80;79.00;;;;;;5001134;28;20038;-66
2021/12/23 13:11:07;;;;;;;40.15;19.85;;;3.80;79.10;;;;;;5024658;28;20740;-66
2021/12/23 13:13:41;;;;;;;43.28;20.08;;;3.80;79.00;;;;;;5027635;28;20037;-66
2021/12/23 13:16:20;;;;;;;41.40;20.02;;;3.90;79.10;;;;;;5027329;28;20043;-66
2021/12/23 13:18:47;;;;;;;41.80;20.90;;;3.90;78.90;;;;;;5028767;28;20258;-66
2021/12/23 13:21:21;;;;;;;46.45;20.77;;;3.90;79.00;;;;;;5033459;28;20409;-66
2021/12/23 13:23:47;;;;;;;42.10;20.67;;;3.90;78.80;;;;;;5030581;28;20033;-67
2021/12/23 13:26:18;;;;;;;43.20;20.10;;;3.90;79.70;;;;;;5032653;28;20503;-66
2021/12/23 13:28:55;;;;;;;42.15;20.55;;;3.90;78.70;;;;;;5034614;28;20030;-66
2021/12/23 13:31:32;;;;;;;43.13;20.83;;;4.00;78.80;;;;;;5030564;28;20200;-66
2021/12/23 13:34:01;;;;;;;41.15;20.73;;;4.00;79.40;;;;;;5018607;28;20102;-66
2021/12/23 13:36:29;;;;;;;41.95;19.88;;;4.00;78.80;;;;;;5020408;28;20033;-66
2021/12/23 13:38:56;;;;;;;41.25;20.40;;;4.10;78.80;;;;;;5034431;28;20117;-67
2021/12/23 13:41:31;;;;;;;41.90;20.23;;;4.10;78.80;;;;;;5029863;28;20029;-67
2021/12/23 13:44:15;;;;;;;;;;;4.10;78.70;;;;;;5028077;28;20033;-67
2021/12/23 13:47:05;;;;;;;38.50;17.95;;;4.10;78.50;;;;;;5024628;28;20307;-67
2021/12/23 13:49:38;;;;;;;38.85;19.15;;;4.10;78.60;;;;;;5023350;28;20311;-66
2021/12/23 13:52:09;;;;;;;38.97;19.20;;;4.10;78.60;;;;;;5029926;28;20115;-65